<?xml version="1.0" encoding="utf-8"?>
<gpx xmlns:xsi="http://www.w3.org/2001/XMLSchema-instance" xmlns:xsd="http://www.w3.org/2001/XMLSchema" version="1.1" creator="Shapelink.com" xmlns="http://www.topografix.com/GPX/1/1" xmlns:gpxtpx="http://www.garmin.com/xmlschemas/TrackPointExtension/v1">
  <metadata>
    <name>Floorball 1.04 km, 2019-11-30</name>
    <desc></desc>
    <author><name>Peter Littke</name></author> 
    <time>2019-11-30T15:53:24Z</time>
  </metadata>
  <trk>
    <name>Floorball 1.04 km, 2019-11-30</name>
    <trkseg>
      <trkpt lat="59.340492" lon="18.085182">
        <ele>37</ele>
        <time>2019-11-30T15:54:01Z</time>
      </trkpt>
      <trkpt lat="59.340434" lon="18.085333">
        <ele>3</ele>
        <time>2019-11-30T15:54:15Z</time>
      </trkpt>
      <trkpt lat="59.340509" lon="18.085431">
        <ele>0</ele>
        <time>2019-11-30T15:54:33Z</time>
      </trkpt>
      <trkpt lat="59.340424" lon="18.085511">
        <ele>2</ele>
        <time>2019-11-30T15:55:12Z</time>
      </trkpt>
      <trkpt lat="59.34049" lon="18.085389">
        <ele>2</ele>
        <time>2019-11-30T15:55:23Z</time>
      </trkpt>
      <trkpt lat="59.340532" lon="18.085232">
        <ele>0</ele>
        <time>2019-11-30T15:56:30Z</time>
      </trkpt>
      <trkpt lat="59.340442" lon="18.085199">
        <ele>1</ele>
        <time>2019-11-30T15:57:03Z</time>
      </trkpt>
      <trkpt lat="59.340517" lon="18.085311">
        <ele>0</ele>
        <time>2019-11-30T15:57:21Z</time>
      </trkpt>
      <trkpt lat="59.340435" lon="18.085431">
        <ele>3</ele>
        <time>2019-11-30T15:58:25Z</time>
      </trkpt>
      <trkpt lat="59.340483" lon="18.085268">
        <ele>0</ele>
        <time>2019-11-30T15:58:59Z</time>
      </trkpt>
      <trkpt lat="59.340496" lon="18.085443">
        <ele>2</ele>
        <time>2019-11-30T16:00:13Z</time>
      </trkpt>
      <trkpt lat="59.340506" lon="18.085268">
        <ele>0</ele>
        <time>2019-11-30T16:00:57Z</time>
      </trkpt>
      <trkpt lat="59.34056" lon="18.08544">
        <ele>0</ele>
        <time>2019-11-30T16:01:43Z</time>
      </trkpt>
      <trkpt lat="59.34047" lon="18.085376">
        <ele>2</ele>
        <time>2019-11-30T16:02:16Z</time>
      </trkpt>
      <trkpt lat="59.340375" lon="18.085372">
        <ele>0</ele>
        <time>2019-11-30T16:02:30Z</time>
      </trkpt>
      <trkpt lat="59.340478" lon="18.085407">
        <ele>0</ele>
        <time>2019-11-30T16:02:43Z</time>
      </trkpt>
      <trkpt lat="59.340555" lon="18.085521">
        <ele>0</ele>
        <time>2019-11-30T16:03:23Z</time>
      </trkpt>
      <trkpt lat="59.340463" lon="18.085489">
        <ele>0</ele>
        <time>2019-11-30T16:03:31Z</time>
      </trkpt>
      <trkpt lat="59.340464" lon="18.085294">
        <ele>0</ele>
        <time>2019-11-30T16:03:43Z</time>
      </trkpt>
      <trkpt lat="59.340545" lon="18.085375">
        <ele>0</ele>
        <time>2019-11-30T16:04:13Z</time>
      </trkpt>
      <trkpt lat="59.340468" lon="18.085498">
        <ele>0</ele>
        <time>2019-11-30T16:04:31Z</time>
      </trkpt>
      <trkpt lat="59.340494" lon="18.085293">
        <ele>1</ele>
        <time>2019-11-30T16:05:28Z</time>
      </trkpt>
      <trkpt lat="59.340575" lon="18.08543">
        <ele>3</ele>
        <time>2019-11-30T16:06:20Z</time>
      </trkpt>
      <trkpt lat="59.340477" lon="18.085396">
        <ele>6</ele>
        <time>2019-11-30T16:07:08Z</time>
      </trkpt>
      <trkpt lat="59.340531" lon="18.08554">
        <ele>0</ele>
        <time>2019-11-30T16:08:01Z</time>
      </trkpt>
      <trkpt lat="59.340522" lon="18.085362">
        <ele>6</ele>
        <time>2019-11-30T16:08:40Z</time>
      </trkpt>
      <trkpt lat="59.340517" lon="18.085184">
        <ele>5</ele>
        <time>2019-11-30T16:09:11Z</time>
      </trkpt>
      <trkpt lat="59.340444" lon="18.08534">
        <ele>0</ele>
        <time>2019-11-30T16:09:33Z</time>
      </trkpt>
      <trkpt lat="59.340509" lon="18.085193">
        <ele>7</ele>
        <time>2019-11-30T16:10:52Z</time>
      </trkpt>
      <trkpt lat="59.340534" lon="18.085371">
        <ele>8</ele>
        <time>2019-11-30T16:11:20Z</time>
      </trkpt>
      <trkpt lat="59.340511" lon="18.085198">
        <ele>11</ele>
        <time>2019-11-30T16:12:57Z</time>
      </trkpt>
      <trkpt lat="59.340414" lon="18.085246">
        <ele>14</ele>
        <time>2019-11-30T16:13:27Z</time>
      </trkpt>
      <trkpt lat="59.340503" lon="18.085195">
        <ele>0</ele>
        <time>2019-11-30T16:13:42Z</time>
      </trkpt>
      <trkpt lat="59.340591" lon="18.085159">
        <ele>0</ele>
        <time>2019-11-30T16:13:50Z</time>
      </trkpt>
      <trkpt lat="59.340542" lon="18.085315">
        <ele>15</ele>
        <time>2019-11-30T16:14:18Z</time>
      </trkpt>
      <trkpt lat="59.34046" lon="18.085405">
        <ele>0</ele>
        <time>2019-11-30T16:14:47Z</time>
      </trkpt>
      <trkpt lat="59.340521" lon="18.085538">
        <ele>13</ele>
        <time>2019-11-30T16:15:16Z</time>
      </trkpt>
      <trkpt lat="59.340433" lon="18.085489">
        <ele>0</ele>
        <time>2019-11-30T16:15:45Z</time>
      </trkpt>
      <trkpt lat="59.340472" lon="18.085328">
        <ele>0</ele>
        <time>2019-11-30T16:15:56Z</time>
      </trkpt>
      <trkpt lat="59.340515" lon="18.085152">
        <ele>1</ele>
        <time>2019-11-30T16:16:17Z</time>
      </trkpt>
      <trkpt lat="59.340427" lon="18.085223">
        <ele>0</ele>
        <time>2019-11-30T16:16:27Z</time>
      </trkpt>
      <trkpt lat="59.340475" lon="18.085389">
        <ele>0</ele>
        <time>2019-11-30T16:16:43Z</time>
      </trkpt>
      <trkpt lat="59.340518" lon="18.085551">
        <ele>0</ele>
        <time>2019-11-30T16:16:51Z</time>
      </trkpt>
      <trkpt lat="59.340478" lon="18.085388">
        <ele>0</ele>
        <time>2019-11-30T16:17:17Z</time>
      </trkpt>
      <trkpt lat="59.34049" lon="18.085189">
        <ele>0</ele>
        <time>2019-11-30T16:17:23Z</time>
      </trkpt>
      <trkpt lat="59.34043" lon="18.085334">
        <ele>0</ele>
        <time>2019-11-30T16:17:32Z</time>
      </trkpt>
      <trkpt lat="59.340469" lon="18.085506">
        <ele>0</ele>
        <time>2019-11-30T16:18:28Z</time>
      </trkpt>
      <trkpt lat="59.340379" lon="18.085542">
        <ele>0</ele>
        <time>2019-11-30T16:19:04Z</time>
      </trkpt>
      <trkpt lat="59.34046" lon="18.085379">
        <ele>0</ele>
        <time>2019-11-30T16:19:09Z</time>
      </trkpt>
      <trkpt lat="59.340523" lon="18.085199">
        <ele>0</ele>
        <time>2019-11-30T16:19:13Z</time>
      </trkpt>
      <trkpt lat="59.34043" lon="18.085227">
        <ele>0</ele>
        <time>2019-11-30T16:19:28Z</time>
      </trkpt>
      <trkpt lat="59.340383" lon="18.085379">
        <ele>0</ele>
        <time>2019-11-30T16:19:35Z</time>
      </trkpt>
      <trkpt lat="59.340369" lon="18.085587">
        <ele>0</ele>
        <time>2019-11-30T16:19:39Z</time>
      </trkpt>
      <trkpt lat="59.340401" lon="18.085405">
        <ele>0</ele>
        <time>2019-11-30T16:19:56Z</time>
      </trkpt>
      <trkpt lat="59.34043" lon="18.085236">
        <ele>0</ele>
        <time>2019-11-30T16:20:05Z</time>
      </trkpt>
      <trkpt lat="59.340504" lon="18.085063">
        <ele>0</ele>
        <time>2019-11-30T16:20:53Z</time>
      </trkpt>
      <trkpt lat="59.340584" lon="18.084936">
        <ele>0</ele>
        <time>2019-11-30T16:20:57Z</time>
      </trkpt>
      <trkpt lat="59.340563" lon="18.085115">
        <ele>0</ele>
        <time>2019-11-30T16:21:07Z</time>
      </trkpt>
      <trkpt lat="59.340501" lon="18.085272">
        <ele>0</ele>
        <time>2019-11-30T16:21:19Z</time>
      </trkpt>
      <trkpt lat="59.340584" lon="18.085358">
        <ele>0</ele>
        <time>2019-11-30T16:21:37Z</time>
      </trkpt>
      <trkpt lat="59.340515" lon="18.085236">
        <ele>0</ele>
        <time>2019-11-30T16:21:59Z</time>
      </trkpt>
      <trkpt lat="59.340494" lon="18.085418">
        <ele>0</ele>
        <time>2019-11-30T16:22:32Z</time>
      </trkpt>
      <trkpt lat="59.340414" lon="18.085532">
        <ele>0</ele>
        <time>2019-11-30T16:22:42Z</time>
      </trkpt>
      <trkpt lat="59.340466" lon="18.08538">
        <ele>0</ele>
        <time>2019-11-30T16:23:12Z</time>
      </trkpt>
      <trkpt lat="59.340382" lon="18.085513">
        <ele>0</ele>
        <time>2019-11-30T16:23:35Z</time>
      </trkpt>
      <trkpt lat="59.340477" lon="18.085514">
        <ele>0</ele>
        <time>2019-11-30T16:24:08Z</time>
      </trkpt>
      <trkpt lat="59.340382" lon="18.085548">
        <ele>0</ele>
        <time>2019-11-30T16:24:32Z</time>
      </trkpt>
      <trkpt lat="59.340467" lon="18.085427">
        <ele>0</ele>
        <time>2019-11-30T16:24:46Z</time>
      </trkpt>
      <trkpt lat="59.340569" lon="18.085243">
        <ele>0</ele>
        <time>2019-11-30T16:24:48Z</time>
      </trkpt>
      <trkpt lat="59.340655" lon="18.085102">
        <ele>0</ele>
        <time>2019-11-30T16:24:51Z</time>
      </trkpt>
      <trkpt lat="59.340579" lon="18.085215">
        <ele>0</ele>
        <time>2019-11-30T16:25:05Z</time>
      </trkpt>
      <trkpt lat="59.340496" lon="18.085335">
        <ele>0</ele>
        <time>2019-11-30T16:25:36Z</time>
      </trkpt>
      <trkpt lat="59.340515" lon="18.08514">
        <ele>1</ele>
        <time>2019-11-30T16:25:43Z</time>
      </trkpt>
      <trkpt lat="59.340498" lon="18.085325">
        <ele>0</ele>
        <time>2019-11-30T16:26:11Z</time>
      </trkpt>
      <trkpt lat="59.340426" lon="18.085447">
        <ele>0</ele>
        <time>2019-11-30T16:26:50Z</time>
      </trkpt>
      <trkpt lat="59.340514" lon="18.085348">
        <ele>1</ele>
        <time>2019-11-30T16:27:23Z</time>
      </trkpt>
      <trkpt lat="59.340581" lon="18.085476">
        <ele>3</ele>
        <time>2019-11-30T16:28:56Z</time>
      </trkpt>
      <trkpt lat="59.340487" lon="18.085459">
        <ele>2</ele>
        <time>2019-11-30T16:29:07Z</time>
      </trkpt>
      <trkpt lat="59.340578" lon="18.085476">
        <ele>1</ele>
        <time>2019-11-30T16:30:09Z</time>
      </trkpt>
      <trkpt lat="59.340527" lon="18.085313">
        <ele>0</ele>
        <time>2019-11-30T16:30:22Z</time>
      </trkpt>
      <trkpt lat="59.340456" lon="18.085434">
        <ele>0</ele>
        <time>2019-11-30T16:30:42Z</time>
      </trkpt>
      <trkpt lat="59.340522" lon="18.085311">
        <ele>1</ele>
        <time>2019-11-30T16:31:18Z</time>
      </trkpt>
      <trkpt lat="59.34053" lon="18.085118">
        <ele>0</ele>
        <time>2019-11-30T16:31:40Z</time>
      </trkpt>
      <trkpt lat="59.340515" lon="18.085296">
        <ele>0</ele>
        <time>2019-11-30T16:31:55Z</time>
      </trkpt>
      <trkpt lat="59.34061" lon="18.085353">
        <ele>8</ele>
        <time>2019-11-30T16:33:12Z</time>
      </trkpt>
      <trkpt lat="59.340542" lon="18.085487">
        <ele>0</ele>
        <time>2019-11-30T16:33:28Z</time>
      </trkpt>
      <trkpt lat="59.34045" lon="18.085454">
        <ele>7</ele>
        <time>2019-11-30T16:34:08Z</time>
      </trkpt>
      <trkpt lat="59.340533" lon="18.085349">
        <ele>0</ele>
        <time>2019-11-30T16:34:30Z</time>
      </trkpt>
      <trkpt lat="59.340624" lon="18.085364">
        <ele>9</ele>
        <time>2019-11-30T16:34:43Z</time>
      </trkpt>
      <trkpt lat="59.340535" lon="18.085441">
        <ele>9</ele>
        <time>2019-11-30T16:34:54Z</time>
      </trkpt>
      <trkpt lat="59.340442" lon="18.085501">
        <ele>10</ele>
        <time>2019-11-30T16:36:00Z</time>
      </trkpt>
      <trkpt lat="59.340535" lon="18.085559">
        <ele>9</ele>
        <time>2019-11-30T16:36:12Z</time>
      </trkpt>
      <trkpt lat="59.340616" lon="18.085479">
        <ele>0</ele>
        <time>2019-11-30T16:36:41Z</time>
      </trkpt>
      <trkpt lat="59.340528" lon="18.085375">
        <ele>0</ele>
        <time>2019-11-30T16:37:01Z</time>
      </trkpt>
      <trkpt lat="59.340577" lon="18.085526">
        <ele>20</ele>
        <time>2019-11-30T16:38:05Z</time>
      </trkpt>
      <trkpt lat="59.340678" lon="18.085516">
        <ele>0</ele>
        <time>2019-11-30T16:38:09Z</time>
      </trkpt>
      <trkpt lat="59.34059" lon="18.085377">
        <ele>0</ele>
        <time>2019-11-30T16:38:16Z</time>
      </trkpt>
      <trkpt lat="59.34064" lon="18.08543">
        <ele>0</ele>
        <time>2019-11-30T16:38:49Z</time>
      </trkpt>
    </trkseg>
  </trk>
</gpx>